Time;durP1;ratioP1;P1;durP2;ratioP2;P2;SDS_P1;SDS_P2;PMS_P1;PMS_P2;Temp;Humidity;BMP_temperature;BMP_pressure;BME280_temperature;BME280_humidity;BME280_pressure;Samples;Min_cycle;Max_cycle;Signal;HPM_P1;HPM_P2
2023/05/14 00:00:14;;;;;;;7.13;3.97;;;;;;;14.88;72.35;95064.00;5096897;28;20266;-77
2023/05/14 00:02:41;;;;;;;4.67;3.83;;;;;;;14.79;72.90;95060.97;5094399;28;20211;-77
2023/05/14 00:05:09;;;;;;;8.23;3.80;;;;;;;14.81;72.27;95063.34;5102421;28;20227;-78
2023/05/14 00:07:36;;;;;;;7.27;4.20;;;;;;;14.77;72.17;95065.66;5087701;28;20628;-78
2023/05/14 00:10:03;;;;;;;5.03;3.80;;;;;;;14.75;72.25;95049.38;5098431;28;20196;-78
2023/05/14 00:12:30;;;;;;;6.03;4.10;;;;;;;14.77;72.35;95063.81;5098151;28;20208;-77
2023/05/14 00:14:57;;;;;;;4.60;3.67;;;;;;;14.73;71.95;95038.38;5103605;28;20224;-77
2023/05/14 00:17:25;;;;;;;8.07;3.90;;;;;;;14.89;71.26;95045.44;5095230;28;20216;-78
2023/05/14 00:19:52;;;;;;;5.97;4.03;;;;;;;14.86;71.77;95042.53;5097594;28;20208;-78
2023/05/14 00:22:18;;;;;;;6.13;3.93;;;;;;;14.80;71.80;95046.09;5094532;28;20208;-79
2023/05/14 00:24:45;;;;;;;5.23;3.77;;;;;;;14.76;72.64;95040.50;5099966;28;20580;-79
2023/05/14 00:27:12;;;;;;;5.20;3.70;;;;;;;14.38;73.27;95035.06;5097964;28;20700;-79
2023/05/14 00:29:39;;;;;;;7.30;4.07;;;;;;;14.20;74.36;95034.16;5097355;28;20204;-78
2023/05/14 00:32:07;;;;;;;4.13;3.60;;;;;;;14.05;75.52;95038.31;5101396;28;20562;-78
2023/05/14 00:34:35;;;;;;;4.80;3.67;;;;;;;13.94;75.50;95018.97;5094310;28;20231;-78
2023/05/14 00:37:02;;;;;;;5.83;4.07;;;;;;;14.13;75.96;95037.94;5097549;28;20261;-78
2023/05/14 00:39:29;;;;;;;7.03;4.13;;;;;;;14.26;75.81;95034.28;5097806;28;20268;-78
2023/05/14 00:41:55;;;;;;;6.33;4.03;;;;;;;14.30;75.29;95027.56;5097887;28;20926;-78
2023/05/14 00:44:22;;;;;;;11.07;4.33;;;;;;;14.44;75.07;95028.91;5090438;28;20201;-78
2023/05/14 00:46:49;;;;;;;7.70;4.00;;;;;;;14.52;73.91;95033.75;5090676;28;20207;-78
2023/05/14 00:49:16;;;;;;;5.83;3.90;;;;;;;14.52;73.91;95020.69;5093440;28;20200;-77
2023/05/14 00:51:45;;;;;;;8.63;4.00;;;;;;;14.62;73.34;95033.97;5097622;28;20614;-78
2023/05/14 00:54:14;;;;;;;5.03;4.10;;;;;;;14.63;73.06;95030.34;5096471;28;20227;-78
2023/05/14 00:56:41;;;;;;;9.10;3.83;;;;;;;14.62;73.51;95028.75;5096229;28;20303;-79
2023/05/14 00:59:08;;;;;;;5.03;3.87;;;;;;;14.63;73.10;95017.25;5093378;28;20214;-79
2023/05/14 01:01:35;;;;;;;5.10;3.53;;;;;;;14.64;73.27;95014.41;5090224;28;20282;-78
2023/05/14 01:04:01;;;;;;;6.30;3.80;;;;;;;14.60;72.71;95004.66;5093079;28;20236;-79
2023/05/14 01:06:36;;;;;;;4.40;3.80;;;;;;;14.67;72.87;95029.63;5095488;28;20280;-79
2023/05/14 01:09:11;;;;;;;5.70;3.80;;;;;;;14.71;72.54;95027.34;5096465;28;20649;-78
2023/05/14 01:11:45;;;;;;;5.43;3.60;;;;;;;14.65;72.13;95013.38;5094211;28;20207;-77
2023/05/14 01:14:17;;;;;;;5.57;3.57;;;;;;;14.63;71.77;95014.66;5093355;28;20240;-79
2023/05/14 01:16:46;;;;;;;7.50;4.30;;;;;;;14.53;72.62;95004.78;5096939;28;20282;-79
2023/05/14 01:19:22;;;;;;;4.93;3.87;;;;;;;14.59;71.92;95014.31;5092149;28;20200;-77
2023/05/14 01:21:50;;;;;;;5.47;3.60;;;;;;;14.59;71.79;95029.19;5092445;28;20220;-77
2023/05/14 01:24:17;;;;;;;8.60;3.90;;;;;;;14.58;71.98;95030.22;5096429;28;20220;-77
2023/05/14 01:26:44;;;;;;;7.93;4.00;;;;;;;14.63;72.62;95038.19;5099964;28;20201;-76
2023/05/14 01:29:19;;;;;;;6.87;4.00;;;;;;;14.43;73.22;95037.81;5092751;28;20212;-83
2023/05/14 01:31:48;;;;;;;10.33;3.90;;;;;;;14.16;74.53;95046.13;5090115;28;20265;-84
2023/05/14 01:34:19;;;;;;;5.67;3.43;;;;;;;13.80;75.01;95048.19;5090266;28;20220;-84
2023/05/14 01:36:48;;;;;;;5.70;3.70;;;;;;;13.67;75.26;95040.59;5090146;28;20258;-83
2023/05/14 01:39:17;;;;;;;6.57;4.10;;;;;;;13.79;75.68;95030.94;5090482;28;20701;-84
2023/05/14 01:41:45;;;;;;;6.37;3.67;;;;;;;14.00;74.83;95046.00;5090114;28;20200;-84
2023/05/14 01:44:12;;;;;;;4.50;3.63;;;;;;;13.99;73.98;95039.22;5093108;28;20201;-84
2023/05/14 01:46:39;;;;;;;6.10;3.63;;;;;;;14.10;74.13;95041.81;5090257;28;20246;-83
2023/05/14 01:49:06;;;;;;;4.63;3.83;;;;;;;14.16;74.01;95033.06;5094556;28;20200;-83
2023/05/14 01:51:32;;;;;;;4.50;3.30;;;;;;;14.19;73.01;95029.19;5094026;28;20226;-83
2023/05/14 01:53:59;;;;;;;6.23;3.53;;;;;;;14.30;72.73;95041.44;5090044;28;20192;-82
2023/05/14 01:56:27;;;;;;;4.60;3.70;;;;;;;14.31;72.52;95048.25;5091763;28;20208;-82
2023/05/14 01:58:55;;;;;;;5.53;3.47;;;;;;;14.34;73.77;95054.88;5090789;28;20269;-82
2023/05/14 02:01:24;;;;;;;6.67;3.40;;;;;;;14.37;73.73;95043.94;5090135;28;20196;-82
2023/05/14 02:03:51;;;;;;;5.40;3.53;;;;;;;14.36;73.90;95031.91;5089690;28;20663;-83
2023/05/14 02:06:18;;;;;;;4.50;3.27;;;;;;;14.35;73.67;95038.94;5090351;28;20250;-83
2023/05/14 02:08:45;;;;;;;4.37;3.53;;;;;;;14.33;73.98;95041.00;5093089;28;20215;-77
2023/05/14 02:11:11;;;;;;;6.10;3.67;;;;;;;14.34;74.12;95032.13;5092996;28;20208;-83
2023/05/14 02:13:40;;;;;;;6.30;3.50;;;;;;;14.32;73.16;95039.41;5089503;28;20874;-84
2023/05/14 02:16:07;;;;;;;7.30;3.33;;;;;;;14.33;73.51;95042.81;5089969;28;20279;-83
2023/05/14 02:18:34;;;;;;;4.60;3.40;;;;;;;14.16;74.46;95019.97;5087796;28;20201;-86
2023/05/14 02:21:00;;;;;;;6.17;3.70;;;;;;;14.25;74.85;95053.59;5097074;28;20247;-83
2023/05/14 02:23:27;;;;;;;3.43;3.00;;;;;;;14.23;74.37;95047.81;5099006;28;20216;-83
2023/05/14 02:25:54;;;;;;;6.10;3.23;;;;;;;14.30;74.38;95059.72;5101022;28;20246;-83
2023/05/14 02:28:21;;;;;;;4.27;3.40;;;;;;;14.34;75.56;95054.88;5092988;28;20208;-83
2023/05/14 02:30:49;;;;;;;4.67;3.40;;;;;;;14.36;77.24;95050.19;5093027;28;20707;-82
2023/05/14 02:33:16;;;;;;;4.33;3.60;;;;;;;14.35;77.59;95059.84;5093481;28;20239;-82
2023/05/14 02:35:43;;;;;;;8.23;3.60;;;;;;;14.29;78.69;95057.31;5097074;28;20231;-82
2023/05/14 02:38:09;;;;;;;5.47;3.80;;;;;;;14.28;78.08;95064.41;5093249;28;20211;-82
2023/05/14 02:40:37;;;;;;;7.20;3.57;;;;;;;14.24;78.56;95065.88;5093053;28;20221;-84
2023/05/14 02:43:04;;;;;;;4.40;3.50;;;;;;;14.10;78.32;95065.34;5093561;28;20595;-83
2023/05/14 02:45:31;;;;;;;3.93;3.50;;;;;;;13.76;80.17;95070.56;5096612;28;20202;-83
2023/05/14 02:47:59;;;;;;;5.33;3.77;;;;;;;13.40;82.43;95074.97;5093308;28;20204;-83
2023/05/14 02:50:26;;;;;;;4.73;3.33;;;;;;;12.98;83.22;95065.53;5092836;28;20281;-84
2023/05/14 02:52:53;;;;;;;7.97;3.67;;;;;;;13.11;82.74;95073.19;5093513;28;20207;-82
2023/05/14 02:55:20;;;;;;;4.90;3.43;;;;;;;13.20;81.74;95082.28;5099307;28;20229;-82
2023/05/14 02:57:46;;;;;;;4.00;3.20;;;;;;;13.35;80.71;95076.66;5092744;28;20201;-83
2023/05/14 03:00:14;;;;;;;5.57;3.50;;;;;;;13.41;79.32;95071.34;5093240;28;20201;-83
2023/05/14 03:02:42;;;;;;;5.80;2.80;;;;;;;13.46;78.62;95083.72;5093458;28;20555;-83
2023/05/14 03:05:11;;;;;;;4.77;3.47;;;;;;;13.45;77.79;95064.63;5092711;28;20270;-81
2023/05/14 03:07:37;;;;;;;5.13;3.40;;;;;;;13.60;77.45;95080.66;5092757;28;20204;-83
2023/05/14 03:10:05;;;;;;;5.80;3.40;;;;;;;13.74;77.25;95077.84;5096353;28;20203;-83
2023/05/14 03:12:32;;;;;;;6.03;3.63;;;;;;;13.76;76.42;95053.09;5092387;28;20204;-83
2023/05/14 03:14:59;;;;;;;6.93;3.40;;;;;;;13.80;76.14;95051.59;5074513;28;20235;-83
2023/05/14 03:17:26;;;;;;;8.37;3.23;;;;;;;13.83;75.80;95047.72;5092465;28;20223;-87
2023/05/14 03:19:52;;;;;;;6.10;3.47;;;;;;;13.84;75.79;95063.19;5092696;28;20204;-87
2023/05/14 03:22:21;;;;;;;4.40;3.20;;;;;;;13.58;75.59;95027.88;5092645;28;20204;-87
2023/05/14 03:24:47;;;;;;;7.80;3.43;;;;;;;13.86;75.70;95065.56;5092697;28;20571;-85
2023/05/14 03:27:14;;;;;;;5.07;3.27;;;;;;;13.80;76.21;95067.25;5093989;28;20196;-86
2023/05/14 03:29:41;;;;;;;5.30;3.50;;;;;;;13.79;77.40;95070.13;5091201;28;20200;-79
2023/05/14 03:32:08;;;;;;;5.97;3.37;;;;;;;13.68;79.57;95056.00;5096283;28;20205;-79
2023/05/14 03:34:35;;;;;;;4.27;3.47;;;;;;;13.71;82.24;95068.63;5099667;28;20597;-79
2023/05/14 03:37:02;;;;;;;6.90;3.50;;;;;;;13.67;82.51;95074.53;5095679;28;20211;-79
2023/05/14 03:39:30;;;;;;;5.07;3.63;;;;;;;13.56;85.43;95073.53;5091649;28;20207;-79
2023/05/14 03:41:57;;;;;;;5.20;3.67;;;;;;;13.58;85.10;95071.47;5099241;28;20205;-79
2023/05/14 03:44:24;;;;;;;4.33;3.30;;;;;;;13.37;85.36;95057.13;5098009;28;20291;-79
2023/05/14 03:46:51;;;;;;;5.83;3.77;;;;;;;13.37;86.24;95061.56;5098301;28;20205;-79
2023/05/14 03:49:18;;;;;;;5.70;3.80;;;;;;;13.38;85.87;95055.31;5095026;28;20576;-79
2023/05/14 03:51:44;;;;;;;8.33;3.63;;;;;;;13.37;85.32;95057.13;5098337;28;20615;-79
2023/05/14 03:54:11;;;;;;;5.97;3.70;;;;;;;13.25;85.42;95053.69;5095018;28;20233;-78
2023/05/14 03:56:39;;;;;;;6.77;3.73;;;;;;;13.27;85.37;95069.16;5095356;28;20224;-78
2023/05/14 03:59:06;;;;;;;5.33;3.33;;;;;;;13.22;85.84;95064.59;5091905;28;20218;-79
2023/05/14 04:01:33;;;;;;;5.27;3.37;;;;;;;13.12;85.21;95051.31;5101891;28;20207;-77
2023/05/14 04:04:01;;;;;;;6.17;3.40;;;;;;;12.89;86.45;95061.63;5100900;28;20800;-79
2023/05/14 04:06:28;;;;;;;4.87;3.63;;;;;;;12.58;88.60;95067.88;5095987;28;20590;-78
2023/05/14 04:08:55;;;;;;;4.73;3.43;;;;;;;12.46;86.85;95078.25;5098915;28;20854;-78
2023/05/14 04:11:22;;;;;;;5.30;3.40;;;;;;;12.49;86.88;95072.59;5090647;28;20667;-78
2023/05/14 04:13:50;;;;;;;5.53;3.50;;;;;;;12.60;87.36;95075.47;5105650;28;20208;-77
2023/05/14 04:16:17;;;;;;;5.73;3.53;;;;;;;12.74;86.43;95076.88;5099155;28;20797;-79
2023/05/14 04:18:43;;;;;;;4.67;3.47;;;;;;;12.82;85.75;95074.75;5097082;28;20204;-78
2023/05/14 04:21:11;;;;;;;4.40;3.37;;;;;;;13.01;83.95;95086.75;5102305;28;20211;-77
2023/05/14 04:23:38;;;;;;;5.50;3.47;;;;;;;13.08;83.79;95084.06;5091442;28;20680;-79
2023/05/14 04:26:05;;;;;;;6.07;3.63;;;;;;;13.20;81.88;95082.28;5095116;28;20200;-79
2023/05/14 04:28:32;;;;;;;4.53;3.30;;;;;;;13.17;81.90;95080.13;5098416;28;20213;-79
2023/05/14 04:31:00;;;;;;;5.97;3.60;;;;;;;13.26;81.47;95091.84;5090698;28;20979;-79
2023/05/14 04:33:27;;;;;;;4.83;3.47;;;;;;;13.33;80.76;95096.97;5096843;28;20207;-79
2023/05/14 04:35:54;;;;;;;4.10;3.27;;;;;;;13.36;80.05;95099.91;5094623;28;20722;-77
2023/05/14 04:38:22;;;;;;;5.67;3.20;;;;;;;13.37;79.72;95100.72;5090231;28;20623;-78
2023/05/14 04:40:48;;;;;;;6.33;3.27;;;;;;;13.41;78.57;95101.88;5097821;28;20211;-83
2023/05/14 04:43:16;;;;;;;4.27;3.50;;;;;;;13.40;79.74;95106.28;5091359;28;20200;-82
2023/05/14 04:45:43;;;;;;;5.13;3.47;;;;;;;13.39;80.84;95116.97;5092723;28;20981;-84
2023/05/14 04:48:11;;;;;;;4.67;3.20;;;;;;;13.30;82.97;95116.50;5090676;28;20196;-82
2023/05/14 04:50:38;;;;;;;4.50;3.43;;;;;;;13.39;81.62;95117.75;5095271;28;20563;-84
2023/05/14 04:53:04;;;;;;;7.47;3.73;;;;;;;13.24;82.49;95114.78;5091102;28;20196;-82
2023/05/14 04:55:32;;;;;;;4.83;3.63;;;;;;;13.40;84.50;95135.00;5090696;28;20231;-80
2023/05/14 04:57:58;;;;;;;5.60;3.73;;;;;;;13.44;86.74;95135.38;5094161;28;20266;-82
2023/05/14 05:00:25;;;;;;;7.53;3.90;;;;;;;13.23;87.14;95110.56;5090373;28;20212;-81
2023/05/14 05:02:52;;;;;;;5.53;3.60;;;;;;;13.27;88.95;95134.41;5093969;28;20253;-82
2023/05/14 05:05:21;;;;;;;6.80;3.80;;;;;;;13.22;89.13;95150.72;5092599;28;20240;-83
2023/05/14 05:07:48;;;;;;;7.83;3.47;;;;;;;13.19;89.46;95155.63;5092374;28;20666;-82
2023/05/14 05:10:14;;;;;;;5.63;3.77;;;;;;;13.17;91.10;95157.63;5093445;28;20197;-81
2023/05/14 05:12:41;;;;;;;5.80;3.63;;;;;;;13.08;92.44;95150.09;5090385;28;20224;-83
2023/05/14 05:15:09;;;;;;;4.80;3.83;;;;;;;13.06;92.72;95153.94;5089839;28;20290;-82
2023/05/14 05:17:36;;;;;;;6.20;4.20;;;;;;;13.10;95.27;95162.94;5090069;28;20196;-83
2023/05/14 05:20:07;;;;;;;5.43;3.93;;;;;;;13.10;95.73;95168.16;5086641;28;20231;-82
2023/05/14 05:22:35;;;;;;;5.20;4.20;;;;;;;12.91;98.10;95177.00;5090242;28;20715;-82
2023/05/14 05:25:04;;;;;;;5.83;4.50;;;;;;;12.47;100.00;95175.47;5089878;28;20612;-82
2023/05/14 05:27:31;;;;;;;9.00;4.50;;;;;;;12.24;100.00;95172.69;5099414;28;20290;-81
2023/05/14 05:29:57;;;;;;;9.90;4.60;;;;;;;12.06;100.00;95168.25;5097132;28;20330;-82
2023/05/14 05:32:24;;;;;;;7.17;4.87;;;;;;;12.15;100.00;95171.41;5092888;28;20207;-82
2023/05/14 05:34:51;;;;;;;8.43;4.70;;;;;;;12.18;100.00;95176.19;5090423;28;20265;-82
2023/05/14 05:37:18;;;;;;;7.53;4.80;;;;;;;12.12;100.00;95159.56;5094744;28;20238;-82
2023/05/14 05:39:47;;;;;;;8.90;5.10;;;;;;;12.15;100.00;95153.94;5091648;28;20204;-81
2023/05/14 05:42:14;;;;;;;8.03;5.10;;;;;;;12.33;100.00;95179.22;5093307;28;20204;-82
2023/05/14 05:44:40;;;;;;;7.93;5.27;;;;;;;12.40;100.00;95191.19;5093319;28;20205;-77
2023/05/14 05:47:07;;;;;;;8.97;5.20;;;;;;;12.31;100.00;95163.00;5092556;28;20188;-77
2023/05/14 05:49:35;;;;;;;6.60;4.93;;;;;;;12.42;100.00;95190.97;5091571;28;20193;-78
2023/05/14 05:52:02;;;;;;;9.10;5.90;;;;;;;12.46;100.00;95197.34;5089471;28;20336;-79
2023/05/14 05:54:31;;;;;;;9.13;5.23;;;;;;;12.38;100.00;95177.56;5093003;28;20227;-78
2023/05/14 05:57:00;;;;;;;9.80;5.60;;;;;;;12.32;100.00;95168.00;5096967;28;20864;-79
2023/05/14 05:59:26;;;;;;;8.77;5.63;;;;;;;12.43;100.00;95182.94;5093701;28;20295;-82
2023/05/14 06:01:53;;;;;;;10.03;6.37;;;;;;;12.40;100.00;95178.16;5094258;28;20193;-82
2023/05/14 06:04:21;;;;;;;9.27;5.70;;;;;;;12.22;100.00;95156.47;5093486;28;20319;-82
2023/05/14 06:06:48;;;;;;;9.30;6.17;;;;;;;12.33;100.00;95185.22;5093969;28;20209;-80
2023/05/14 06:09:15;;;;;;;10.30;5.97;;;;;;;12.27;100.00;95180.88;5093918;28;20667;-82
2023/05/14 06:11:41;;;;;;;8.70;5.80;;;;;;;12.35;100.00;95191.03;5101296;28;20196;-82
2023/05/14 06:14:09;;;;;;;8.17;6.43;;;;;;;12.39;100.00;95189.59;5094753;28;20204;-82
2023/05/14 06:16:36;;;;;;;12.10;6.73;;;;;;;12.35;100.00;95185.81;5093484;28;20227;-82
2023/05/14 06:19:03;;;;;;;10.77;6.70;;;;;;;12.28;100.00;95166.84;5093259;28;20690;-82
2023/05/14 06:21:30;;;;;;;8.57;6.30;;;;;;;12.27;100.00;95170.47;5096746;28;20205;-86
2023/05/14 06:23:57;;;;;;;12.97;6.13;;;;;;;12.31;100.00;95173.44;5095616;28;20216;-90
2023/05/14 06:26:24;;;;;;;9.23;6.90;;;;;;;12.17;100.00;95167.56;5105073;28;20200;-91
2023/05/14 06:28:51;;;;;;;9.10;6.33;;;;;;;12.23;100.00;95178.94;5097436;28;20706;-92
2023/05/14 06:31:19;;;;;;;8.03;6.03;;;;;;;12.21;100.00;95186.94;5096437;28;20212;-92
2023/05/14 06:33:46;;;;;;;10.23;6.10;;;;;;;12.02;100.00;95167.09;5095893;28;20206;-89
2023/05/14 06:36:13;;;;;;;9.57;6.23;;;;;;;12.15;100.00;95200.84;5096247;28;20279;-90
2023/05/14 06:38:40;;;;;;;9.23;6.37;;;;;;;11.81;100.00;95190.88;5096768;28;20291;-91
2023/05/14 06:41:07;;;;;;;12.40;7.43;;;;;;;11.05;100.00;95112.13;5095064;28;20205;-88
2023/05/14 06:43:34;;;;;;;12.93;6.47;;;;;;;11.37;100.00;95192.56;5095582;28;20204;-89
2023/05/14 06:46:01;;;;;;;11.63;7.50;;;;;;;11.38;100.00;95188.16;5094733;28;20205;-88
2023/05/14 06:48:29;;;;;;;11.77;6.83;;;;;;;11.34;100.00;95169.56;5094489;28;20235;-84
2023/05/14 06:50:56;;;;;;;14.20;7.60;;;;;;;11.46;100.00;95166.31;5097804;28;20196;-84
2023/05/14 06:53:23;;;;;;;10.60;6.67;;;;;;;11.66;100.00;95174.78;5096233;28;20221;-86
2023/05/14 06:55:50;;;;;;;10.93;6.50;;;;;;;11.79;100.00;95169.47;5092539;28;20224;-86
2023/05/14 06:58:17;;;;;;;11.83;6.60;;;;;;;11.84;100.00;95165.22;5093666;28;20201;-82
2023/05/14 07:00:44;;;;;;;9.07;6.20;;;;;;;11.90;100.00;95153.97;5092626;28;20219;-84
2023/05/14 07:03:11;;;;;;;16.70;7.00;;;;;;;11.95;100.00;95150.72;5096987;28;20201;-84
2023/05/14 07:05:40;;;;;;;9.63;6.47;;;;;;;12.07;100.00;95177.66;5093264;28;20225;-84
2023/05/14 07:08:06;;;;;;;12.23;6.40;;;;;;;12.08;100.00;95181.06;5093462;28;20272;-84
2023/05/14 07:10:34;;;;;;;7.80;5.87;;;;;;;12.06;100.00;95164.84;5089630;28;20204;-83
2023/05/14 07:13:02;;;;;;;9.90;6.27;;;;;;;11.98;100.00;95168.50;5092342;28;20610;-83
2023/05/14 07:15:28;;;;;;;11.97;7.30;;;;;;;12.14;100.00;95191.44;5096559;28;21004;-83
2023/05/14 07:17:55;;;;;;;10.20;6.40;;;;;;;12.18;100.00;95213.44;5092949;28;20235;-86
2023/05/14 07:20:23;;;;;;;10.07;6.63;;;;;;;12.24;100.00;95214.38;5092821;28;20644;-86
2023/05/14 07:22:53;;;;;;;11.83;6.43;;;;;;;12.08;100.00;95178.47;5092211;28;20240;-86
2023/05/14 07:25:20;;;;;;;10.67;7.17;;;;;;;12.13;100.00;95184.63;5092678;28;20660;-86
2023/05/14 07:27:47;;;;;;;10.90;7.03;;;;;;;12.12;100.00;95185.63;5092433;28;20208;-86
2023/05/14 07:30:15;;;;;;;15.47;7.03;;;;;;;12.22;100.00;95185.16;5092741;28;20287;-86
2023/05/14 07:32:41;;;;;;;10.23;7.33;;;;;;;12.30;100.00;95197.91;5092029;28;20284;-86
2023/05/14 07:35:10;;;;;;;11.93;7.87;;;;;;;12.15;100.00;95164.34;5092672;28;20212;-86
2023/05/14 07:37:37;;;;;;;10.90;7.50;;;;;;;12.27;100.00;95198.31;5089179;28;20212;-86
2023/05/14 07:40:07;;;;;;;11.40;7.23;;;;;;;12.33;100.00;95210.50;5093211;28;20212;-84
2023/05/14 07:42:34;;;;;;;11.30;7.50;;;;;;;12.30;100.00;95210.94;5093005;28;20204;-85
2023/05/14 07:45:01;;;;;;;11.53;8.03;;;;;;;12.20;100.00;95182.78;5098084;28;20203;-85
2023/05/14 07:47:28;;;;;;;10.77;7.60;;;;;;;12.35;100.00;95205.88;5096037;28;20217;-85
2023/05/14 07:49:56;;;;;;;13.17;7.87;;;;;;;12.35;100.00;95214.47;5094836;28;20229;-85
2023/05/14 07:52:23;;;;;;;14.40;8.73;;;;;;;12.29;100.00;95207.53;5093172;28;20235;-85
2023/05/14 07:54:50;;;;;;;15.20;8.30;;;;;;;12.34;100.00;95207.69;5092805;28;20200;-84
2023/05/14 07:57:19;;;;;;;15.00;8.60;;;;;;;12.39;100.00;95217.47;5092448;28;20256;-85
2023/05/14 07:59:46;;;;;;;14.70;8.37;;;;;;;12.36;100.00;95221.31;5092736;28;20198;-84
2023/05/14 08:02:14;;;;;;;11.93;8.10;;;;;;;12.36;100.00;95217.88;5091134;28;20196;-83
2023/05/14 08:04:41;;;;;;;12.60;8.57;;;;;;;12.40;100.00;95216.47;5091842;28;20269;-82
2023/05/14 08:07:09;;;;;;;13.83;8.03;;;;;;;12.38;100.00;95224.47;5091261;28;20197;-82
2023/05/14 08:09:36;;;;;;;13.03;7.20;;;;;;;12.35;100.00;95221.53;5087590;28;20196;-83
2023/05/14 08:12:03;;;;;;;10.63;7.30;;;;;;;12.39;100.00;95220.06;5091448;28;20201;-83
2023/05/14 08:14:31;;;;;;;10.17;7.27;;;;;;;12.37;100.00;95209.88;5091089;28;20203;-82
2023/05/14 08:16:59;;;;;;;12.37;7.07;;;;;;;12.28;100.00;95182.50;5090479;28;20305;-82
2023/05/14 08:19:26;;;;;;;10.77;7.07;;;;;;;12.30;100.00;95174.44;5091114;28;20209;-84
2023/05/14 08:21:53;;;;;;;8.57;6.47;;;;;;;12.29;100.00;95171.06;5091288;28;20204;-83
2023/05/14 08:24:20;;;;;;;11.57;7.37;;;;;;;12.42;100.00;95183.94;5090920;28;20231;-83
2023/05/14 08:26:47;;;;;;;12.10;7.57;;;;;;;12.50;100.00;95185.47;5092541;28;20219;-83
2023/05/14 08:29:13;;;;;;;11.70;7.90;;;;;;;12.50;100.00;95181.06;5093304;28;20204;-83
2023/05/14 08:31:42;;;;;;;15.80;7.70;;;;;;;12.62;100.00;95188.16;5090820;28;20200;-83
2023/05/14 08:34:09;;;;;;;12.30;8.10;;;;;;;12.42;100.00;95177.94;5090905;28;20573;-82
2023/05/14 08:36:36;;;;;;;9.87;7.07;;;;;;;12.48;100.00;95188.31;5090984;28;20627;-82
2023/05/14 08:39:02;;;;;;;9.13;7.13;;;;;;;12.23;100.00;95169.31;5091353;28;20200;-83
2023/05/14 08:41:29;;;;;;;9.83;7.33;;;;;;;12.23;100.00;95174.53;5091091;28;20207;-82
2023/05/14 08:44:06;;;;;;;9.17;6.90;;;;;;;11.60;100.00;95167.81;5090724;28;20211;-82
2023/05/14 08:46:34;;;;;;;10.87;7.70;;;;;;;11.04;100.00;95139.91;5093844;28;20694;-82
2023/05/14 08:49:11;;;;;;;13.93;8.20;;;;;;;11.16;100.00;95160.88;5093831;28;20255;-82
2023/05/14 08:51:39;;;;;;;14.10;7.87;;;;;;;11.06;100.00;95174.31;5087526;28;20270;-82
2023/05/14 08:54:06;;;;;;;12.53;8.67;;;;;;;11.20;100.00;95168.03;5090357;28;20200;-85
2023/05/14 08:56:33;;;;;;;15.47;8.80;;;;;;;11.37;100.00;95158.72;5092259;28;20293;-84
2023/05/14 08:59:00;;;;;;;13.83;8.23;;;;;;;11.24;100.00;95114.59;5090673;28;20188;-84
2023/05/14 09:01:28;;;;;;;13.03;7.73;;;;;;;11.60;100.00;95171.19;5091273;28;20205;-84
2023/05/14 09:03:56;;;;;;;10.93;8.00;;;;;;;11.73;100.00;95172.94;5091827;28;20338;-80
2023/05/14 09:06:25;;;;;;;12.17;7.70;;;;;;;11.79;100.00;95172.88;5093460;28;20204;-82
2023/05/14 09:08:53;;;;;;;10.07;7.43;;;;;;;11.85;100.00;95164.22;5090283;28;20236;-81
2023/05/14 09:11:20;;;;;;;9.10;7.13;;;;;;;11.97;100.00;95168.75;5090408;28;20201;-83
2023/05/14 09:13:47;;;;;;;13.27;8.43;;;;;;;12.10;100.00;95163.41;5091553;28;20235;-82
2023/05/14 09:16:14;;;;;;;12.43;8.30;;;;;;;12.15;100.00;95148.72;5090723;28;20204;-81
2023/05/14 09:18:44;;;;;;;16.77;7.93;;;;;;;12.20;100.00;95154.09;5093969;28;20209;-81
2023/05/14 09:21:12;;;;;;;10.93;7.73;;;;;;;12.21;100.00;95149.66;5090720;28;20201;-80
2023/05/14 09:23:42;;;;;;;10.27;7.47;;;;;;;12.35;100.00;95167.56;5093608;28;20197;-82
2023/05/14 09:26:09;;;;;;;11.77;7.70;;;;;;;12.34;100.00;95171.19;5090319;28;20228;-81
2023/05/14 09:28:39;;;;;;;9.77;7.33;;;;;;;12.20;100.00;95143.69;5090097;28;20211;-82
2023/05/14 09:31:06;;;;;;;12.90;8.13;;;;;;;12.34;100.00;95142.53;5090145;28;20196;-80
2023/05/14 09:33:33;;;;;;;9.60;7.47;;;;;;;12.18;100.00;95145.69;5105197;28;20212;-86
2023/05/14 09:36:00;;;;;;;8.83;7.60;;;;;;;11.90;100.00;95155.75;5104323;28;20205;-86
2023/05/14 09:38:30;;;;;;;13.60;8.67;;;;;;;11.55;100.00;95149.41;5103947;28;20228;-86
2023/05/14 09:40:59;;;;;;;10.37;8.20;;;;;;;11.53;100.00;95138.41;5097118;28;20587;-86
2023/05/14 09:43:27;;;;;;;12.93;8.67;;;;;;;11.58;100.00;95120.34;5094475;28;20301;-82
2023/05/14 09:45:54;;;;;;;16.50;9.17;;;;;;;11.65;100.00;95128.91;5090355;28;20235;-82
2023/05/14 09:48:21;;;;;;;12.37;8.73;;;;;;;11.82;100.00;95140.41;5091527;28;20205;-82
2023/05/14 09:50:48;;;;;;;13.80;8.57;;;;;;;11.87;100.00;95133.56;5096530;28;20201;-82
2023/05/14 09:53:16;;;;;;;10.60;8.10;;;;;;;11.80;100.00;95119.00;5092160;28;20205;-82
2023/05/14 09:55:43;;;;;;;10.23;8.03;;;;;;;11.97;100.00;95138.28;5089863;28;20320;-81
2023/05/14 09:58:13;;;;;;;11.97;8.27;;;;;;;12.03;100.00;95132.22;5091753;28;20598;-85
2023/05/14 10:00:43;;;;;;;24.50;8.83;;;;;;;12.00;100.00;95134.44;5094589;28;20207;-82
2023/05/14 10:03:13;;;;;;;17.60;9.37;;;;;;;11.72;100.00;95129.66;5092840;28;20223;-85
2023/05/14 10:05:41;;;;;;;12.83;9.13;;;;;;;11.52;100.00;95108.97;5091425;28;20225;-83
2023/05/14 10:08:13;;;;;;;15.20;9.03;;;;;;;11.50;100.00;95103.19;5095453;28;20200;-80
2023/05/14 10:10:41;;;;;;;18.10;9.67;;;;;;;11.62;100.00;95109.31;5096337;28;20296;-82
2023/05/14 10:13:14;;;;;;;16.60;10.07;;;;;;;11.77;100.00;95109.00;5099320;28;20223;-80
2023/05/14 10:15:52;;;;;;;12.07;9.20;;;;;;;11.81;100.00;95097.13;5111415;28;20200;-81
2023/05/14 10:18:35;;;;;;;11.43;9.23;;;;;;;11.90;100.00;95078.44;5095495;28;20242;-84
2023/05/14 10:21:05;;;;;;;13.10;9.43;;;;;;;11.92;100.00;95081.59;5106842;28;20291;-88
2023/05/14 10:23:36;;;;;;;13.83;9.07;;;;;;;11.89;100.00;95078.63;5101260;28;20276;-88
2023/05/14 10:26:04;;;;;;;11.97;8.33;;;;;;;11.81;100.00;95087.53;5100599;28;20196;-88
2023/05/14 10:28:33;;;;;;;12.50;8.53;;;;;;;11.90;100.00;95114.09;5104616;28;20294;-83
2023/05/14 10:31:00;;;;;;;10.53;8.40;;;;;;;11.92;100.00;95117.28;5107644;28;20205;-82
2023/05/14 10:33:27;;;;;;;13.33;9.03;;;;;;;11.91;100.00;95110.50;5099076;28;20240;-88
2023/05/14 10:36:00;;;;;;;11.20;8.23;;;;;;;11.78;100.00;95100.16;5097719;28;20211;-87
2023/05/14 10:38:28;;;;;;;16.50;9.27;;;;;;;11.59;100.00;95095.91;5095253;28;20255;-85
2023/05/14 10:41:08;;;;;;;17.40;10.93;;;;;;;11.34;100.00;95106.31;5095808;28;20221;-85
2023/05/14 10:43:39;;;;;;;16.00;11.00;;;;;;;11.29;100.00;95096.53;5094848;28;20197;-85
2023/05/14 10:46:08;;;;;;;24.00;11.60;;;;;;;11.38;100.00;95089.25;5107537;28;20211;-84
2023/05/14 10:48:37;;;;;;;16.73;10.60;;;;;;;11.51;100.00;95102.19;5088155;28;20252;-83
2023/05/14 10:51:07;;;;;;;14.23;9.97;;;;;;;11.49;100.00;95075.56;5091608;28;20251;-84
2023/05/14 10:53:35;;;;;;;15.63;11.03;;;;;;;11.72;100.00;95099.22;5091726;28;20211;-90
2023/05/14 10:56:09;;;;;;;15.10;11.10;;;;;;;11.84;100.00;95073.28;5094107;28;20204;-78
2023/05/14 10:58:38;;;;;;;15.53;11.70;;;;;;;12.04;100.00;95065.25;5093511;28;20299;-83
2023/05/14 11:01:07;;;;;;;12.43;10.53;;;;;;;12.33;100.00;95083.59;5090451;28;20294;-82
2023/05/14 11:03:39;;;;;;;11.90;10.10;;;;;;;12.45;100.00;95084.47;5089278;28;20220;-86
2023/05/14 11:06:07;;;;;;;12.37;10.07;;;;;;;12.44;100.00;95085.47;5089594;28;20711;-80
2023/05/14 11:08:34;;;;;;;12.43;9.10;;;;;;;12.51;100.00;95083.59;5089516;28;20219;-80
2023/05/14 11:11:02;;;;;;;11.80;9.97;;;;;;;12.62;100.00;95102.91;5092616;28;20212;-80
2023/05/14 11:13:29;;;;;;;13.27;9.60;;;;;;;12.71;100.00;95101.59;5092876;28;20204;-81
2023/05/14 11:15:58;;;;;;;13.57;9.80;;;;;;;12.62;100.00;95092.47;5092557;28;20259;-80
2023/05/14 11:18:29;;;;;;;12.47;9.90;;;;;;;12.74;100.00;95102.97;5091340;28;20667;-78
2023/05/14 11:20:59;;;;;;;12.40;9.20;;;;;;;12.65;100.00;95099.84;5092238;28;21396;-81
2023/05/14 11:23:27;;;;;;;12.23;9.10;;;;;;;12.39;100.00;95094.94;5091469;28;20261;-78
2023/05/14 11:25:55;;;;;;;13.80;9.50;;;;;;;12.06;100.00;95081.50;5091545;28;20554;-78